Time;durP1;ratioP1;P1;durP2;ratioP2;P2;SDS_P1;SDS_P2;PMS_P1;PMS_P2;Temp;Humidity;BMP_temperature;BMP_pressure;BME280_temperature;BME280_humidity;BME280_pressure;Samples;Min_cycle;Max_cycle;Signal;HPM_P1;HPM_P2
2021/07/21 00:00:54;;;;;;;;;;;;;;;24.96;62.14;99645.66;2063389;28;20882;-67
2021/07/21 00:01:54;;;;;;;;;;;;;;;24.95;62.24;99635.72;2068961;28;20047;-67
2021/07/21 00:02:56;;;;;;;;;;;;;;;24.96;62.21;99645.66;2069855;28;19980;-67
2021/07/21 00:03:56;;;;;;;;;;;;;;;24.95;62.02;99647.59;2062253;28;19967;-67
2021/07/21 00:04:56;;;;;;;;;;;;;;;24.96;62.06;99645.66;2068785;28;19955;-67
2021/07/21 00:05:56;;;;;;;;;;;;;;;24.95;62.28;99644.81;2070181;28;19932;-67
2021/07/21 00:06:57;;;;;;;;;;;;;;;24.96;62.28;99651.19;2069869;28;20364;-68
2021/07/21 00:07:58;;;;;;;;;;;;;;;24.96;62.03;99649.31;2068711;28;19917;-67
2021/07/21 00:08:58;;;;;;;;;;;;;;;24.94;61.94;99642.25;2070623;28;19964;-67
2021/07/21 00:09:59;;;;;;;;;;;;;;;24.95;62.23;99646.72;2068559;28;19921;-67
2021/07/21 00:13:37;;;;;;;;;;;;;;;24.94;62.27;99650.53;2069381;28;19913;-67
2021/07/21 00:14:38;;;;;;;;;;;;;;;24.95;62.15;99649.50;2075080;28;19929;-67
2021/07/21 00:15:40;;;;;;;;;;;;;;;24.95;62.12;99646.72;2066406;28;20057;-67
2021/07/21 00:16:43;;;;;;;;;;;;;;;24.95;62.08;99646.72;2069988;28;20218;-67
2021/07/21 00:17:45;;;;;;;;;;;;;;;24.95;62.24;99646.72;2069396;28;19913;-67
2021/07/21 00:18:49;;;;;;;;;;;;;;;24.96;62.36;99645.66;2068024;28;20316;-67
2021/07/21 00:20:05;;;;;;;;;;;;;;;24.95;62.20;99649.50;2067613;28;20423;-67
2021/07/21 00:21:06;;;;;;;;;;;;;;;24.95;62.19;99650.34;2067462;28;20295;-67
2021/07/21 00:22:06;;;;;;;;;;;;;;;24.95;62.23;99644.81;2069076;28;20003;-67
2021/07/21 00:23:06;;;;;;;;;;;;;;;24.95;62.10;99652.25;2069222;28;20699;-67
2021/07/21 00:24:07;;;;;;;;;;;;;;;24.95;62.17;99655.00;2069520;28;20418;-67
2021/07/21 00:25:09;;;;;;;;;;;;;;;24.95;62.31;99652.25;2067804;28;20441;-67
2021/07/21 00:26:10;;;;;;;;;;;;;;;24.95;62.13;99655.00;2068805;28;19917;-67
2021/07/21 00:27:11;;;;;;;;;;;;;;;24.95;62.24;99661.38;2070243;28;19956;-67
2021/07/21 00:28:12;;;;;;;;;;;;;;;24.95;62.16;99660.53;2067467;28;19953;-67
2021/07/21 00:29:12;;;;;;;;;;;;;;;24.95;62.27;99666.88;2069338;28;19960;-67
2021/07/21 00:30:14;;;;;;;;;;;;;;;24.95;62.19;99663.28;2069363;28;19920;-68
2021/07/21 00:31:16;;;;;;;;;;;;;;;24.95;62.27;99666.03;2070001;28;19986;-67
2021/07/21 00:32:16;;;;;;;;;;;;;;;24.95;62.27;99660.53;2068931;28;20050;-68
2021/07/21 00:33:16;;;;;;;;;;;;;;;24.95;62.30;99660.53;2069245;28;19924;-68
2021/07/21 00:34:17;;;;;;;;;;;;;;;24.94;62.23;99665.19;2068613;28;19917;-67
2021/07/21 00:35:18;;;;;;;;;;;;;;;24.95;62.31;99660.53;2069317;28;20035;-67
2021/07/21 00:36:18;;;;;;;;;;;;;;;24.95;62.27;99666.03;2068517;28;19917;-67
2021/07/21 00:37:19;;;;;;;;;;;;;;;24.94;62.31;99665.19;2067245;28;20004;-67
2021/07/21 00:38:19;;;;;;;;;;;;;;;24.95;62.37;99666.03;2068443;28;19967;-67
2021/07/21 00:39:19;;;;;;;;;;;;;;;24.94;62.42;99664.31;2067031;28;19920;-67
2021/07/21 00:40:20;;;;;;;;;;;;;;;24.93;62.26;99660.72;2066316;28;19968;-67
2021/07/21 00:41:20;;;;;;;;;;;;;;;24.94;62.18;99669.81;2068926;28;19917;-68
2021/07/21 00:42:20;;;;;;;;;;;;;;;24.94;62.33;99670.69;2067572;28;19913;-67
2021/07/21 00:43:21;;;;;;;;;;;;;;;24.94;62.26;99664.31;2069276;28;20008;-67
2021/07/21 00:44:21;;;;;;;;;;;;;;;24.93;62.27;99663.47;2067421;28;19963;-67
2021/07/21 00:45:21;;;;;;;;;;;;;;;24.94;62.21;99664.31;2070308;28;19989;-67
2021/07/21 00:46:21;;;;;;;;;;;;;;;24.94;62.36;99664.31;2067617;28;19913;-67
2021/07/21 00:47:22;;;;;;;;;;;;;;;24.94;62.32;99664.31;2067789;28;19929;-67
2021/07/21 00:48:22;;;;;;;;;;;;;;;24.94;62.39;99669.81;2069029;28;20406;-67
2021/07/21 00:49:25;;;;;;;;;;;;;;;24.93;62.48;99660.72;2069089;28;20363;-67
2021/07/21 00:50:25;;;;;;;;;;;;;;;24.95;62.39;99671.53;2066158;28;20485;-67
2021/07/21 00:51:25;;;;;;;;;;;;;;;24.94;62.26;99667.06;2063136;28;20154;-67
2021/07/21 00:52:26;;;;;;;;;;;;;;;24.93;62.37;99666.22;2067561;28;19936;-67
2021/07/21 00:53:26;;;;;;;;;;;;;;;24.93;62.19;99668.13;2066859;28;19983;-67
2021/07/21 00:54:26;;;;;;;;;;;;;;;24.93;62.34;99666.22;2070423;28;19978;-67
2021/07/21 00:55:27;;;;;;;;;;;;;;;24.94;62.40;99667.06;2068200;28;19955;-68
2021/07/21 00:56:28;;;;;;;;;;;;;;;24.93;62.18;99666.22;2068191;28;20038;-67
2021/07/21 00:57:28;;;;;;;;;;;;;;;24.93;62.34;99662.63;2069608;28;20662;-67
2021/07/21 00:58:28;;;;;;;;;;;;;;;24.94;62.27;99669.81;2069489;28;19924;-66
2021/07/21 00:59:31;;;;;;;;;;;;;;;24.94;62.22;99669.81;2069619;28;19917;-67
2021/07/21 01:00:32;;;;;;;;;;;;;;;24.94;62.44;99667.06;2068987;28;20002;-67
2021/07/21 01:01:34;;;;;;;;;;;;;;;24.93;62.30;99668.97;2067860;28;19921;-67
2021/07/21 01:02:34;;;;;;;;;;;;;;;24.93;62.33;99663.47;2069376;28;19917;-67
2021/07/21 01:03:35;;;;;;;;;;;;;;;24.92;62.45;99659.00;2071026;28;20435;-67
2021/07/21 01:04:37;;;;;;;;;;;;;;;24.92;62.32;99661.78;2072539;28;20430;-67
2021/07/21 01:05:41;;;;;;;;;;;;;;;24.93;62.21;99662.63;2069685;28;20381;-67
2021/07/21 01:06:42;;;;;;;;;;;;;;;24.93;62.23;99662.63;2069543;28;19963;-67
2021/07/21 01:07:46;;;;;;;;;;;;;;;24.93;62.18;99668.13;2068715;28;19912;-67
2021/07/21 01:08:47;;;;;;;;;;;;;;;24.93;62.16;99663.47;2070551;28;20588;-66
2021/07/21 01:09:48;;;;;;;;;;;;;;;24.93;62.23;99668.13;2069804;28;20303;-67
2021/07/21 01:11:00;;;;;;;;;;;;;;;24.94;62.46;99669.81;2071467;28;19948;-67
2021/07/21 01:12:03;;;;;;;;;;;;;;;24.93;62.34;99668.13;2071603;28;20043;-67
2021/07/21 01:13:26;;;;;;;;;;;;;;;24.94;62.18;99669.81;2068224;28;19964;-67
2021/07/21 01:14:30;;;;;;;;;;;;;;;24.93;62.37;99663.47;2064981;28;19917;-67
2021/07/21 01:15:31;;;;;;;;;;;;;;;24.93;62.26;99660.72;2071199;28;19924;-67
2021/07/21 01:16:33;;;;;;;;;;;;;;;24.92;62.38;99660.94;2071497;28;19947;-67
2021/07/21 01:17:37;;;;;;;;;;;;;;;24.92;62.39;99667.28;2070625;28;19913;-67
2021/07/21 01:18:44;;;;;;;;;;;;;;;24.93;62.38;99668.13;2071092;28;19917;-67
2021/07/21 01:20:08;;;;;;;;;;;;;;;24.93;62.37;99668.97;2069497;28;19920;-67
2021/07/21 01:21:27;;;;;;;;;;;;;;;24.93;62.45;99663.47;2069288;28;20063;-67
2021/07/21 01:22:30;;;;;;;;;;;;;;;24.93;62.31;99662.63;2063389;28;19917;-67
2021/07/21 01:23:39;;;;;;;;;;;;;;;24.93;62.46;99662.63;2070423;28;19917;-67
2021/07/21 01:24:45;;;;;;;;;;;;;;;24.93;62.50;99662.63;2069954;28;19917;-67
2021/07/21 01:25:56;;;;;;;;;;;;;;;24.93;62.52;99668.13;2071253;28;20016;-67
2021/07/21 01:27:00;;;;;;;;;;;;;;;24.92;62.45;99661.78;2068933;28;20372;-67
2021/07/21 01:28:02;;;;;;;;;;;;;;;24.92;62.33;99658.16;2068024;28;19909;-67
2021/07/21 01:29:03;;;;;;;;;;;;;;;24.93;62.29;99665.38;2065464;28;19917;-67
2021/07/21 01:30:24;;;;;;;;;;;;;;;24.93;62.38;99662.63;2070223;28;19954;-67
2021/07/21 01:31:31;;;;;;;;;;;;;;;24.93;62.41;99668.13;2068951;28;19917;-67
2021/07/21 01:32:32;;;;;;;;;;;;;;;24.93;62.37;99668.97;2066018;28;19917;-67
2021/07/21 01:33:35;;;;;;;;;;;;;;;24.93;62.16;99663.47;2069351;28;19917;-67
2021/07/21 01:34:36;;;;;;;;;;;;;;;24.93;62.24;99668.13;2070679;28;20896;-67
2021/07/21 01:35:38;;;;;;;;;;;;;;;24.94;62.36;99675.34;2070388;28;20357;-67
2021/07/21 01:36:49;;;;;;;;;;;;;;;24.92;62.37;99667.28;2071102;28;19928;-67
2021/07/21 01:38:07;;;;;;;;;;;;;;;24.92;62.43;99672.81;2068120;28;19917;-67
2021/07/21 01:39:10;;;;;;;;;;;;;;;24.93;62.48;99671.75;2070579;28;20969;-67
2021/07/21 01:40:15;;;;;;;;;;;;;;;24.93;62.29;99668.13;2070327;28;19913;-67
2021/07/21 01:41:19;;;;;;;;;;;;;;;24.93;62.31;99673.66;2069737;28;19964;-67
2021/07/21 01:42:20;;;;;;;;;;;;;;;24.93;62.41;99673.66;2070442;28;20016;-67
2021/07/21 01:43:22;;;;;;;;;;;;;;;24.93;62.47;99673.66;2071804;28;19913;-67
2021/07/21 01:44:25;;;;;;;;;;;;;;;24.92;62.50;99667.28;2068694;28;19917;-67
2021/07/21 01:45:27;;;;;;;;;;;;;;;24.92;62.48;99669.19;2070607;28;20004;-67
2021/07/21 01:46:28;;;;;;;;;;;;;;;24.92;62.44;99669.19;2070036;28;20882;-67
2021/07/21 01:47:33;;;;;;;;;;;;;;;24.92;62.38;99669.19;2073778;28;19912;-67
2021/07/21 01:48:36;;;;;;;;;;;;;;;24.92;62.34;99666.44;2071343;28;19917;-67
2021/07/21 01:49:38;;;;;;;;;;;;;;;24.93;62.37;99668.13;2069688;28;20005;-67
2021/07/21 01:50:39;;;;;;;;;;;;;;;24.92;62.51;99663.69;2068880;28;20388;-67
2021/07/21 01:51:41;;;;;;;;;;;;;;;24.93;62.41;99662.63;2070809;28;19917;-67
2021/07/21 01:52:48;;;;;;;;;;;;;;;24.93;62.33;99662.63;2069770;28;19925;-67
2021/07/21 01:53:48;;;;;;;;;;;;;;;24.92;62.38;99667.28;2067104;28;19967;-67
2021/07/21 01:54:49;;;;;;;;;;;;;;;24.92;62.34;99661.78;2070577;28;19994;-68
2021/07/21 01:55:50;;;;;;;;;;;;;;;24.92;62.35;99663.69;2070044;28;19921;-67
2021/07/21 01:56:50;;;;;;;;;;;;;;;24.93;62.29;99657.09;2070689;28;19924;-67
2021/07/21 01:57:51;;;;;;;;;;;;;;;24.92;62.59;99666.44;2070522;28;19921;-68
2021/07/21 01:58:52;;;;;;;;;;;;;;;24.93;62.39;99668.97;2069932;28;20475;-67
2021/07/21 01:59:53;;;;;;;;;;;;;;;24.92;62.46;99664.53;2070341;28;20326;-67
2021/07/21 02:00:54;;;;;;;;;;;;;;;24.92;62.57;99666.44;2069281;28;19921;-67
2021/07/21 02:01:54;;;;;;;;;;;;;;;24.92;62.55;99660.94;2071099;28;19925;-67
2021/07/21 02:02:56;;;;;;;;;;;;;;;24.91;62.37;99661.97;2070103;28;20411;-67
2021/07/21 02:03:57;;;;;;;;;;;;;;;24.92;62.36;99666.44;2070579;28;19943;-67
2021/07/21 02:04:59;;;;;;;;;;;;;;;24.91;62.32;99665.56;2069470;28;19913;-68
2021/07/21 02:06:01;;;;;;;;;;;;;;;24.92;62.39;99661.78;2074743;28;20016;-67
2021/07/21 02:07:01;;;;;;;;;;;;;;;24.92;62.39;99666.44;2067625;28;19956;-67
2021/07/21 02:08:02;;;;;;;;;;;;;;;24.93;62.34;99668.13;2071720;28;19913;-67
2021/07/21 02:09:05;;;;;;;;;;;;;;;24.92;62.34;99663.69;2072710;28;20023;-67
2021/07/21 02:10:06;;;;;;;;;;;;;;;24.92;62.50;99663.69;2066948;28;20438;-67
2021/07/21 02:11:06;;;;;;;;;;;;;;;24.91;62.33;99664.72;2070312;28;20788;-67
2021/07/21 02:12:07;;;;;;;;;;;;;;;24.92;62.36;99669.19;2070864;28;19913;-68
2021/07/21 02:13:10;;;;;;;;;;;;;;;24.92;62.46;99674.72;2070578;28;20203;-67
2021/07/21 02:14:11;;;;;;;;;;;;;;;24.92;62.38;99671.97;2070813;28;19996;-68
2021/07/21 02:15:11;;;;;;;;;;;;;;;24.92;62.61;99672.81;2071633;28;19917;-67
2021/07/21 02:16:12;;;;;;;;;;;;;;;24.91;62.52;99673.00;2071957;28;20021;-67
2021/07/21 02:17:14;;;;;;;;;;;;;;;24.91;62.37;99670.22;2069199;28;19913;-67
2021/07/21 02:18:16;;;;;;;;;;;;;;;24.92;62.50;99680.22;2070309;28;20351;-67
2021/07/21 02:19:16;;;;;;;;;;;;;;;24.92;62.59;99678.31;2069597;28;19917;-67
2021/07/21 02:20:16;;;;;;;;;;;;;;;24.93;62.42;99679.16;2070211;28;19970;-68
2021/07/21 02:21:17;;;;;;;;;;;;;;;24.92;62.40;99677.47;2068970;28;19929;-67
2021/07/21 02:22:19;;;;;;;;;;;;;;;24.92;62.50;99680.22;2069159;28;19921;-67
2021/07/21 02:23:20;;;;;;;;;;;;;;;24.92;62.42;99678.31;2067854;28;20024;-67
2021/07/21 02:24:21;;;;;;;;;;;;;;;24.92;62.55;99682.97;2069175;28;19917;-67
2021/07/21 02:25:22;;;;;;;;;;;;;;;24.92;62.52;99685.75;2070728;28;19952;-67
2021/07/21 02:26:22;;;;;;;;;;;;;;;24.92;62.55;99688.50;2069723;28;20273;-67
2021/07/21 02:27:23;;;;;;;;;;;;;;;24.92;62.42;99685.75;2069889;28;20161;-67
2021/07/21 02:28:23;;;;;;;;;;;;;;;24.92;62.42;99694.00;2068936;28;20345;-68
2021/07/21 02:29:24;;;;;;;;;;;;;;;24.92;62.39;99694.84;2070174;28;20141;-67
2021/07/21 02:30:24;;;;;;;;;;;;;;;24.92;62.40;99688.50;2069340;28;20406;-67
2021/07/21 02:31:27;;;;;;;;;;;;;;;24.91;62.46;99690.38;2069484;28;19913;-67
2021/07/21 02:32:31;;;;;;;;;;;;;;;24.92;62.46;99694.00;2071163;28;20186;-67
2021/07/21 02:33:43;;;;;;;;;;;;;;;24.91;62.47;99698.66;2068795;28;20435;-67
2021/07/21 02:34:43;;;;;;;;;;;;;;;24.92;62.65;99694.84;2070924;28;19966;-67
2021/07/21 02:35:43;;;;;;;;;;;;;;;24.91;62.54;99698.66;2069163;28;20753;-67
2021/07/21 02:36:44;;;;;;;;;;;;;;;24.91;62.39;99698.66;2070616;28;19952;-67
2021/07/21 02:37:45;;;;;;;;;;;;;;;24.92;62.33;99705.03;2072794;28;19916;-67
2021/07/21 02:38:46;;;;;;;;;;;;;;;24.91;62.43;99704.16;2067219;28;19955;-67
2021/07/21 02:39:48;;;;;;;;;;;;;;;24.91;62.51;99706.91;2069979;28;19939;-67
2021/07/21 02:40:49;;;;;;;;;;;;;;;24.92;62.46;99707.78;2068921;28;20549;-68
2021/07/21 02:41:49;;;;;;;;;;;;;;;24.92;62.38;99713.31;2069661;28;20608;-67
2021/07/21 02:42:49;;;;;;;;;;;;;;;24.91;62.54;99709.69;2069431;28;20359;-67
2021/07/21 02:43:49;;;;;;;;;;;;;;;24.91;62.34;99708.81;2070408;28;19921;-67
2021/07/21 02:44:51;;;;;;;;;;;;;;;24.92;62.29;99716.06;2071723;28;19917;-68
2021/07/21 02:45:51;;;;;;;;;;;;;;;24.91;62.33;99715.19;2070386;28;20027;-67
2021/07/21 02:46:51;;;;;;;;;;;;;;;24.92;62.43;99718.81;2070379;28;19913;-67
2021/07/21 02:47:52;;;;;;;;;;;;;;;24.91;62.57;99714.34;2070253;28;19917;-67
2021/07/21 02:48:53;;;;;;;;;;;;;;;24.92;62.57;99721.59;2070302;28;19917;-67
2021/07/21 02:49:53;;;;;;;;;;;;;;;24.91;62.47;99720.69;2070590;28;20015;-67
2021/07/21 02:50:56;;;;;;;;;;;;;;;24.91;62.65;99720.69;2068869;28;19917;-67
2021/07/21 02:51:59;;;;;;;;;;;;;;;24.91;62.52;99714.34;2070081;28;20019;-67
2021/07/21 02:53:02;;;;;;;;;;;;;;;24.91;62.50;99722.63;2070475;28;19925;-67
2021/07/21 02:54:22;;;;;;;;;;;;;;;24.91;62.43;99722.63;2069450;28;19928;-67
2021/07/21 02:55:43;;;;;;;;;;;;;;;24.92;62.38;99718.81;2062794;28;19913;-67
2021/07/21 02:56:55;;;;;;;;;;;;;;;24.91;62.37;99723.47;2069579;28;20008;-68
2021/07/21 02:57:55;;;;;;;;;;;;;;;24.91;62.57;99720.69;2068017;28;20447;-67
2021/07/21 02:59:01;;;;;;;;;;;;;;;24.91;62.58;99714.34;2070022;28;20510;-67
2021/07/21 03:00:06;;;;;;;;;;;;;;;24.91;62.43;99722.63;2066628;28;19917;-67
2021/07/21 03:01:07;;;;;;;;;;;;;;;24.92;62.59;99724.34;2073123;28;20051;-67
2021/07/21 03:02:08;;;;;;;;;;;;;;;24.91;62.42;99719.84;2067736;28;20824;-67
2021/07/21 03:03:10;;;;;;;;;;;;;;;24.91;62.55;99719.84;2069248;28;19917;-67
2021/07/21 03:04:10;;;;;;;;;;;;;;;24.91;62.56;99719.84;2070375;28;19921;-67
2021/07/21 03:05:12;;;;;;;;;;;;;;;24.91;62.51;99719.84;2068911;28;20509;-67
2021/07/21 03:06:16;;;;;;;;;;;;;;;24.91;62.58;99714.34;2069296;28;19916;-67
2021/07/21 03:07:17;;;;;;;;;;;;;;;24.91;62.58;99719.84;2070112;28;20364;-67
2021/07/21 03:08:19;;;;;;;;;;;;;;;24.91;62.39;99717.94;2068719;28;19928;-68
2021/07/21 03:09:21;;;;;;;;;;;;;;;24.90;62.54;99719.00;2066006;28;19967;-68
2021/07/21 03:10:21;;;;;;;;;;;;;;;24.91;62.50;99719.84;2068764;28;19913;-68
2021/07/21 03:11:23;;;;;;;;;;;;;;;24.91;62.40;99719.84;2070131;28;19952;-68
2021/07/21 03:12:27;;;;;;;;;;;;;;;24.90;62.52;99712.66;2070427;28;20706;-68
2021/07/21 03:13:41;;;;;;;;;;;;;;;24.92;62.59;99721.59;2068330;28;19952;-68
2021/07/21 03:14:42;;;;;;;;;;;;;;;24.90;62.49;99715.41;2070613;28;19983;-68
2021/07/21 03:15:45;;;;;;;;;;;;;;;24.90;62.63;99718.16;2069102;28;19917;-68
2021/07/21 03:16:47;;;;;;;;;;;;;;;24.91;62.52;99719.84;2069707;28;19968;-68
2021/07/21 03:17:48;;;;;;;;;;;;;;;24.90;62.41;99720.91;2069129;28;19917;-68
2021/07/21 03:18:50;;;;;;;;;;;;;;;24.91;62.46;99714.34;2069262;28;20039;-68
2021/07/21 03:19:52;;;;;;;;;;;;;;;24.90;62.59;99724.53;2070856;28;20011;-68
2021/07/21 03:20:53;;;;;;;;;;;;;;;24.91;62.40;99725.38;2067801;28;20350;-68
2021/07/21 03:21:55;;;;;;;;;;;;;;;24.90;62.51;99718.16;2068442;28;19917;-68
2021/07/21 03:22:57;;;;;;;;;;;;;;;24.90;62.43;99723.69;2068324;28;19936;-68
2021/07/21 03:24:00;;;;;;;;;;;;;;;24.90;62.37;99720.91;2070300;28;20370;-68
2021/07/21 03:25:00;;;;;;;;;;;;;;;24.90;62.59;99729.19;2069831;28;19916;-68
2021/07/21 03:26:03;;;;;;;;;;;;;;;24.90;62.44;99723.69;2069822;28;19917;-68
2021/07/21 03:27:05;;;;;;;;;;;;;;;24.89;62.49;99719.19;2067809;28;19917;-68
2021/07/21 03:28:05;;;;;;;;;;;;;;;24.89;62.62;99720.06;2068774;28;19921;-68
2021/07/21 03:29:06;;;;;;;;;;;;;;;24.89;62.39;99710.94;2068543;28;19924;-68
2021/07/21 03:30:07;;;;;;;;;;;;;;;24.89;62.57;99720.06;2068818;28;20672;-68
2021/07/21 03:31:09;;;;;;;;;;;;;;;24.89;62.35;99720.06;2068138;28;20340;-68
2021/07/21 03:32:09;;;;;;;;;;;;;;;24.90;62.67;99712.66;2069360;28;19917;-68
2021/07/21 03:33:11;;;;;;;;;;;;;;;24.90;62.46;99724.53;2068518;28;19917;-68
2021/07/21 03:34:12;;;;;;;;;;;;;;;24.89;62.46;99713.69;2069446;28;19923;-68
2021/07/21 03:35:12;;;;;;;;;;;;;;;24.90;62.41;99729.19;2068706;28;20440;-67
2021/07/21 03:36:13;;;;;;;;;;;;;;;24.89;62.63;99721.94;2068928;28;19999;-68
2021/07/21 03:37:14;;;;;;;;;;;;;;;24.90;62.56;99723.69;2064257;28;19919;-68
2021/07/21 03:38:16;;;;;;;;;;;;;;;24.90;62.42;99730.03;2068146;28;20419;-68
2021/07/21 03:39:18;;;;;;;;;;;;;;;24.90;62.65;99731.94;2070617;28;19913;-68
2021/07/21 03:40:19;;;;;;;;;;;;;;;24.90;62.47;99735.56;2069126;28;19913;-68
2021/07/21 03:41:19;;;;;;;;;;;;;;;24.90;62.40;99734.69;2066651;28;19932;-68
2021/07/21 03:42:20;;;;;;;;;;;;;;;24.89;62.58;99727.47;2068328;28;19959;-68
2021/07/21 03:43:24;;;;;;;;;;;;;;;24.90;62.62;99730.03;2067529;28;20012;-68
2021/07/21 03:44:25;;;;;;;;;;;;;;;24.90;62.56;99740.22;2069737;28;20388;-68
2021/07/21 03:45:27;;;;;;;;;;;;;;;24.90;62.44;99731.94;2069631;28;20283;-68
2021/07/21 03:46:28;;;;;;;;;;;;;;;24.89;62.60;99739.38;2068013;28;19968;-68
2021/07/21 03:47:28;;;;;;;;;;;;;;;24.90;62.40;99740.22;2070263;28;19921;-68
2021/07/21 03:48:29;;;;;;;;;;;;;;;24.90;62.55;99740.22;2068959;28;19913;-68
2021/07/21 03:49:29;;;;;;;;;;;;;;;24.90;62.61;99740.22;2070753;28;19917;-68
2021/07/21 03:50:30;;;;;;;;;;;;;;;24.89;62.59;99744.88;2069163;28;19920;-68
2021/07/21 03:51:31;;;;;;;;;;;;;;;24.90;62.50;99751.25;2066313;28;19961;-68
2021/07/21 03:52:33;;;;;;;;;;;;;;;24.90;62.63;99745.72;2069829;28;19971;-68
2021/07/21 03:53:33;;;;;;;;;;;;;;;24.90;62.43;99751.25;2066324;28;20384;-68
2021/07/21 03:54:34;;;;;;;;;;;;;;;24.90;62.34;99751.25;2071283;28;20262;-68
2021/07/21 03:55:36;;;;;;;;;;;;;;;24.90;62.43;99754.00;2068703;28;19920;-68
2021/07/21 03:56:37;;;;;;;;;;;;;;;24.89;62.37;99755.03;2064619;28;19912;-68
2021/07/21 03:57:38;;;;;;;;;;;;;;;24.89;62.54;99755.91;2069244;28;19929;-67
2021/07/21 03:58:38;;;;;;;;;;;;;;;24.90;62.48;99756.75;2068978;28;19917;-67
2021/07/21 03:59:39;;;;;;;;;;;;;;;24.90;62.45;99762.28;2071762;28;19917;-68
2021/07/21 04:00:39;;;;;;;;;;;;;;;24.90;62.51;99762.28;2067936;28;19926;-68
2021/07/21 04:01:40;;;;;;;;;;;;;;;24.90;62.49;99765.03;2070783;28;19921;-68
2021/07/21 04:02:42;;;;;;;;;;;;;;;24.89;62.46;99761.44;2069175;28;20671;-68
2021/07/21 04:03:42;;;;;;;;;;;;;;;24.89;62.44;99755.91;2068146;28;20121;-68
2021/07/21 04:04:44;;;;;;;;;;;;;;;24.90;62.59;99762.28;2069572;28;19959;-68
2021/07/21 04:05:45;;;;;;;;;;;;;;;24.89;62.53;99764.19;2067888;28;19928;-68
2021/07/21 04:06:46;;;;;;;;;;;;;;;24.89;62.31;99771.56;2069194;28;20304;-67
2021/07/21 04:07:47;;;;;;;;;;;;;;;24.90;62.42;99767.78;2069633;28;19917;-68
2021/07/21 04:08:48;;;;;;;;;;;;;;;24.90;62.34;99765.03;2070253;28;19967;-67
2021/07/21 04:09:50;;;;;;;;;;;;;;;24.89;62.45;99769.69;2069560;28;20011;-67
2021/07/21 04:10:52;;;;;;;;;;;;;;;24.89;62.49;99763.31;2068637;28;20922;-67
2021/07/21 04:11:55;;;;;;;;;;;;;;;24.90;62.44;99768.63;2069952;28;19920;-67
2021/07/21 04:12:57;;;;;;;;;;;;;;;24.89;62.34;99782.59;2070059;28;19928;-67
2021/07/21 04:13:58;;;;;;;;;;;;;;;24.90;62.30;99778.81;2069536;28;19924;-67
2021/07/21 04:14:59;;;;;;;;;;;;;;;24.90;62.27;99773.31;2074647;28;19960;-67
2021/07/21 04:15:59;;;;;;;;;;;;;;;24.89;62.54;99771.56;2067933;28;20404;-67
2021/07/21 04:17:00;;;;;;;;;;;;;;;24.89;62.30;99771.56;2068902;28;19917;-67
2021/07/21 04:18:00;;;;;;;;;;;;;;;24.89;62.41;99772.44;2069089;28;19966;-67
2021/07/21 04:19:03;;;;;;;;;;;;;;;24.89;62.30;99766.94;2069692;28;20654;-67
2021/07/21 04:20:05;;;;;;;;;;;;;;;24.88;62.54;99767.97;2077535;28;19966;-67
2021/07/21 04:21:06;;;;;;;;;;;;;;;24.88;62.29;99775.41;2077388;28;19968;-67
2021/07/21 04:22:06;;;;;;;;;;;;;;;24.90;62.46;99781.56;2066791;28;19921;-67
2021/07/21 04:23:07;;;;;;;;;;;;;;;24.89;62.29;99779.84;2068396;28;19916;-67
2021/07/21 04:24:09;;;;;;;;;;;;;;;24.89;62.45;99774.34;2069606;28;19957;-68
2021/07/21 04:25:10;;;;;;;;;;;;;;;24.88;62.47;99779.00;2070273;28;20454;-67
2021/07/21 04:26:11;;;;;;;;;;;;;;;24.88;62.47;99776.25;2068729;28;19913;-67
2021/07/21 04:27:12;;;;;;;;;;;;;;;24.88;62.53;99780.91;2071359;28;19913;-67
2021/07/21 04:28:12;;;;;;;;;;;;;;;24.88;62.46;99781.75;2066583;28;19929;-67
2021/07/21 04:29:33;;;;;;;;;;;;;;;24.88;62.49;99781.75;2067365;28;19963;-67
2021/07/21 04:30:33;;;;;;;;;;;;;;;24.88;62.38;99784.50;2069034;28;19924;-67
2021/07/21 04:31:36;;;;;;;;;;;;;;;24.90;62.32;99787.09;2067947;28;19910;-67
2021/07/21 04:32:37;;;;;;;;;;;;;;;24.90;62.50;99789.84;2068303;28;19920;-67
2021/07/21 04:33:37;;;;;;;;;;;;;;;24.90;62.44;99789.84;2069755;28;19911;-67
2021/07/21 04:34:38;;;;;;;;;;;;;;;24.89;62.31;99796.38;2068461;28;19924;-67
2021/07/21 04:35:38;;;;;;;;;;;;;;;24.89;62.50;99801.91;2069720;28;19909;-67
2021/07/21 04:36:39;;;;;;;;;;;;;;;24.89;62.50;99804.66;2067514;28;20813;-68
2021/07/21 04:37:40;;;;;;;;;;;;;;;24.89;62.36;99799.16;2067995;28;20150;-67
2021/07/21 04:38:40;;;;;;;;;;;;;;;24.88;62.43;99805.72;2068370;28;20748;-67
2021/07/21 04:39:44;;;;;;;;;;;;;;;24.88;62.31;99809.31;2069999;28;20062;-67
2021/07/21 04:40:45;;;;;;;;;;;;;;;24.88;62.32;99805.72;2074925;28;19920;-67
2021/07/21 04:41:51;;;;;;;;;;;;;;;24.89;62.36;99807.41;2070503;28;19917;-67
2021/07/21 04:42:51;;;;;;;;;;;;;;;24.89;62.43;99815.69;2073091;28;19913;-67
2021/07/21 04:43:51;;;;;;;;;;;;;;;24.88;62.43;99809.31;2069011;28;19912;-67
2021/07/21 04:44:52;;;;;;;;;;;;;;;24.89;62.28;99815.69;2070547;28;19913;-67
2021/07/21 04:45:52;;;;;;;;;;;;;;;24.88;62.53;99820.34;2069381;28;19921;-67
2021/07/21 04:46:54;;;;;;;;;;;;;;;24.87;62.59;99813.13;2071556;28;19917;-67
2021/07/21 04:47:54;;;;;;;;;;;;;;;24.88;62.49;99820.34;2071626;28;20637;-67
2021/07/21 04:48:55;;;;;;;;;;;;;;;24.89;62.27;99826.72;2071450;28;20578;-67
2021/07/21 04:49:57;;;;;;;;;;;;;;;24.87;62.49;99823.31;2070657;28;19944;-67
2021/07/21 04:50:59;;;;;;;;;;;;;;;24.89;62.50;99823.94;2071903;28;20330;-67
2021/07/21 04:52:01;;;;;;;;;;;;;;;24.88;62.43;99825.03;2069292;28;19940;-67
2021/07/21 04:53:01;;;;;;;;;;;;;;;24.87;62.25;99823.31;2070667;28;20288;-67
2021/07/21 04:54:03;;;;;;;;;;;;;;;24.88;62.30;99830.53;2069603;28;19943;-67
2021/07/21 04:55:04;;;;;;;;;;;;;;;24.88;62.29;99831.38;2071093;28;19925;-67
2021/07/21 04:56:04;;;;;;;;;;;;;;;24.88;62.44;99822.25;2070350;28;19909;-67
2021/07/21 04:57:05;;;;;;;;;;;;;;;24.88;62.27;99825.03;2070269;28;19909;-67
2021/07/21 04:58:05;;;;;;;;;;;;;;;24.88;62.53;99833.28;2071497;28;19917;-67
2021/07/21 04:59:05;;;;;;;;;;;;;;;24.88;62.35;99825.03;2070293;28;19912;-67
2021/07/21 05:00:06;;;;;;;;;;;;;;;24.88;62.50;99830.53;2069074;28;19913;-67
2021/07/21 05:01:06;;;;;;;;;;;;;;;24.88;62.54;99833.28;2072450;28;19921;-67
2021/07/21 05:02:07;;;;;;;;;;;;;;;24.88;62.34;99834.13;2070314;28;19936;-67
2021/07/21 05:03:09;;;;;;;;;;;;;;;24.87;62.46;99840.72;2071534;28;20334;-67
2021/07/21 05:04:10;;;;;;;;;;;;;;;24.88;62.21;99841.56;2070686;28;19962;-67
2021/07/21 05:05:10;;;;;;;;;;;;;;;24.87;62.40;99837.09;2071152;28;19967;-67
2021/07/21 05:06:11;;;;;;;;;;;;;;;24.88;62.24;99841.56;2069770;28;20298;-67
2021/07/21 05:07:12;;;;;;;;;;;;;;;24.86;62.43;99840.91;2073453;28;20861;-67
2021/07/21 05:08:13;;;;;;;;;;;;;;;24.86;62.51;99850.00;2071654;28;19913;-67
2021/07/21 05:09:13;;;;;;;;;;;;;;;24.87;62.34;99856.41;2070273;28;19917;-67
2021/07/21 05:10:14;;;;;;;;;;;;;;;24.87;62.52;99850.88;2071454;28;20018;-67
2021/07/21 05:11:14;;;;;;;;;;;;;;;24.87;62.47;99857.25;2070682;28;19963;-67
2021/07/21 05:12:14;;;;;;;;;;;;;;;24.88;62.46;99852.59;2067318;28;19979;-67
2021/07/21 05:13:15;;;;;;;;;;;;;;;24.88;62.39;99852.59;2070132;28;19921;-67
2021/07/21 05:14:15;;;;;;;;;;;;;;;24.88;62.32;99858.09;2070406;28;20031;-67
2021/07/21 05:15:16;;;;;;;;;;;;;;;24.87;62.33;99860.00;2074281;28;19916;-66
2021/07/21 05:16:17;;;;;;;;;;;;;;;24.87;62.28;99853.66;2069190;28;20016;-67
2021/07/21 05:17:17;;;;;;;;;;;;;;;24.87;62.44;99856.41;2069235;28;19920;-67
2021/07/21 05:18:17;;;;;;;;;;;;;;;24.87;62.51;99850.88;2069178;28;19910;-68
2021/07/21 05:19:18;;;;;;;;;;;;;;;24.87;62.52;99864.69;2069286;28;19921;-68
2021/07/21 05:20:18;;;;;;;;;;;;;;;24.87;62.23;99862.75;2073220;28;20605;-67
2021/07/21 05:21:18;;;;;;;;;;;;;;;24.88;62.26;99863.63;2070383;28;19921;-67
2021/07/21 05:22:19;;;;;;;;;;;;;;;24.87;62.43;99859.16;2069446;28;19964;-67
2021/07/21 05:23:19;;;;;;;;;;;;;;;24.86;62.48;99861.03;2073372;28;19923;-67
2021/07/21 05:24:20;;;;;;;;;;;;;;;24.87;62.43;99856.41;2059677;28;19921;-67
2021/07/21 05:25:20;;;;;;;;;;;;;;;24.86;62.31;99854.69;2062540;28;19968;-67
2021/07/21 05:26:21;;;;;;;;;;;;;;;24.87;62.32;99867.44;2066855;28;19987;-68